sensor_id;sensor_type;location;lat;lon;timestamp;P1;durP1;ratioP1;P2;durP2;ratioP2
1360;SDS011;674;45.552;-122.600;2022-09-03T00:02:27;17.13;;;15.03;;
1360;SDS011;674;45.552;-122.600;2022-09-03T00:05:23;19.57;;;15.37;;
1360;SDS011;674;45.552;-122.600;2022-09-03T00:08:13;15.93;;;14.03;;
1360;SDS011;674;45.552;-122.600;2022-09-03T00:16:44;17.23;;;15.43;;
1360;SDS011;674;45.552;-122.600;2022-09-03T00:19:25;17.10;;;14.80;;
1360;SDS011;674;45.552;-122.600;2022-09-03T00:22:09;17.27;;;15.50;;
1360;SDS011;674;45.552;-122.600;2022-09-03T00:24:48;18.70;;;15.50;;
1360;SDS011;674;45.552;-122.600;2022-09-03T00:27:20;17.90;;;15.30;;
1360;SDS011;674;45.552;-122.600;2022-09-03T00:29:54;18.07;;;16.10;;
1360;SDS011;674;45.552;-122.600;2022-09-03T00:32:44;17.80;;;14.57;;
1360;SDS011;674;45.552;-122.600;2022-09-03T00:35:34;17.40;;;14.27;;
1360;SDS011;674;45.552;-122.600;2022-09-03T00:38:15;17.20;;;15.43;;
1360;SDS011;674;45.552;-122.600;2022-09-03T00:44:08;16.67;;;14.90;;
1360;SDS011;674;45.552;-122.600;2022-09-03T00:55:06;15.70;;;14.13;;
1360;SDS011;674;45.552;-122.600;2022-09-03T01:00:36;14.27;;;12.87;;
1360;SDS011;674;45.552;-122.600;2022-09-03T01:03:11;13.67;;;12.37;;
1360;SDS011;674;45.552;-122.600;2022-09-03T01:05:59;13.80;;;12.20;;
1360;SDS011;674;45.552;-122.600;2022-09-03T01:11:42;14.00;;;10.97;;
1360;SDS011;674;45.552;-122.600;2022-09-03T01:30:56;12.13;;;9.80;;
1360;SDS011;674;45.552;-122.600;2022-09-03T01:33:47;10.47;;;9.43;;
1360;SDS011;674;45.552;-122.600;2022-09-03T01:39:02;10.23;;;8.50;;
1360;SDS011;674;45.552;-122.600;2022-09-03T01:41:44;9.27;;;8.37;;
1360;SDS011;674;45.552;-122.600;2022-09-03T01:51:02;7.43;;;6.63;;
1360;SDS011;674;45.552;-122.600;2022-09-03T01:57:15;10.73;;;7.70;;
1360;SDS011;674;45.552;-122.600;2022-09-03T01:59:58;8.07;;;7.27;;
1360;SDS011;674;45.552;-122.600;2022-09-03T02:02:49;6.87;;;6.17;;
1360;SDS011;674;45.552;-122.600;2022-09-03T02:05:23;9.67;;;6.77;;
1360;SDS011;674;45.552;-122.600;2022-09-03T02:07:55;7.70;;;6.00;;
1360;SDS011;674;45.552;-122.600;2022-09-03T02:13:28;8.50;;;6.80;;
1360;SDS011;674;45.552;-122.600;2022-09-03T02:16:09;9.90;;;6.77;;
1360;SDS011;674;45.552;-122.600;2022-09-03T02:18:44;8.63;;;6.47;;
1360;SDS011;674;45.552;-122.600;2022-09-03T02:21:17;6.50;;;5.80;;
1360;SDS011;674;45.552;-122.600;2022-09-03T02:23:47;9.07;;;6.10;;
1360;SDS011;674;45.552;-122.600;2022-09-03T02:26:20;7.60;;;6.03;;
1360;SDS011;674;45.552;-122.600;2022-09-03T02:28:50;6.57;;;5.87;;
1360;SDS011;674;45.552;-122.600;2022-09-03T02:31:21;9.17;;;6.70;;
1360;SDS011;674;45.552;-122.600;2022-09-03T02:33:50;8.63;;;6.77;;
1360;SDS011;674;45.552;-122.600;2022-09-03T02:36:19;8.10;;;6.30;;
1360;SDS011;674;45.552;-122.600;2022-09-03T02:38:54;8.60;;;5.60;;
1360;SDS011;674;45.552;-122.600;2022-09-03T02:41:22;6.93;;;6.20;;
1360;SDS011;674;45.552;-122.600;2022-09-03T02:46:59;7.00;;;5.30;;
1360;SDS011;674;45.552;-122.600;2022-09-03T02:49:29;8.63;;;5.93;;
1360;SDS011;674;45.552;-122.600;2022-09-03T02:52:00;9.30;;;6.00;;
1360;SDS011;674;45.552;-122.600;2022-09-03T02:54:35;7.77;;;6.10;;
1360;SDS011;674;45.552;-122.600;2022-09-03T02:57:06;9.73;;;6.60;;
1360;SDS011;674;45.552;-122.600;2022-09-03T02:59:36;6.30;;;5.70;;
1360;SDS011;674;45.552;-122.600;2022-09-03T03:02:06;6.50;;;5.47;;
1360;SDS011;674;45.552;-122.600;2022-09-03T03:04:35;7.33;;;5.27;;
1360;SDS011;674;45.552;-122.600;2022-09-03T03:07:04;7.60;;;5.27;;
1360;SDS011;674;45.552;-122.600;2022-09-03T03:09:34;6.37;;;5.00;;
1360;SDS011;674;45.552;-122.600;2022-09-03T03:12:02;6.77;;;5.37;;
1360;SDS011;674;45.552;-122.600;2022-09-03T03:14:31;6.17;;;5.17;;
1360;SDS011;674;45.552;-122.600;2022-09-03T03:16:59;5.87;;;4.67;;
1360;SDS011;674;45.552;-122.600;2022-09-03T03:19:28;7.17;;;4.83;;
1360;SDS011;674;45.552;-122.600;2022-09-03T03:21:57;6.40;;;5.43;;
1360;SDS011;674;45.552;-122.600;2022-09-03T03:24:25;7.60;;;5.37;;
1360;SDS011;674;45.552;-122.600;2022-09-03T03:26:55;15.03;;;4.80;;
1360;SDS011;674;45.552;-122.600;2022-09-03T03:29:26;13.87;;;4.90;;
1360;SDS011;674;45.552;-122.600;2022-09-03T03:31:55;6.90;;;4.70;;
1360;SDS011;674;45.552;-122.600;2022-09-03T03:34:24;5.63;;;5.00;;
1360;SDS011;674;45.552;-122.600;2022-09-03T03:36:52;5.73;;;4.77;;
1360;SDS011;674;45.552;-122.600;2022-09-03T03:39:21;5.50;;;4.60;;
1360;SDS011;674;45.552;-122.600;2022-09-03T03:41:50;7.30;;;4.30;;
1360;SDS011;674;45.552;-122.600;2022-09-03T03:44:18;4.80;;;4.30;;
1360;SDS011;674;45.552;-122.600;2022-09-03T03:46:47;4.67;;;3.60;;
1360;SDS011;674;45.552;-122.600;2022-09-03T03:49:16;6.30;;;4.60;;
1360;SDS011;674;45.552;-122.600;2022-09-03T03:51:44;4.47;;;4.07;;
1360;SDS011;674;45.552;-122.600;2022-09-03T03:54:13;6.10;;;3.70;;
1360;SDS011;674;45.552;-122.600;2022-09-03T03:56:43;6.60;;;3.80;;
1360;SDS011;674;45.552;-122.600;2022-09-03T03:59:20;4.83;;;3.90;;
1360;SDS011;674;45.552;-122.600;2022-09-03T04:01:49;5.77;;;3.80;;
1360;SDS011;674;45.552;-122.600;2022-09-03T04:04:17;4.20;;;3.60;;
1360;SDS011;674;45.552;-122.600;2022-09-03T04:06:46;5.90;;;4.23;;
1360;SDS011;674;45.552;-122.600;2022-09-03T04:09:14;7.73;;;4.17;;
1360;SDS011;674;45.552;-122.600;2022-09-03T04:11:43;4.80;;;4.30;;
1360;SDS011;674;45.552;-122.600;2022-09-03T04:14:11;6.10;;;4.50;;
1360;SDS011;674;45.552;-122.600;2022-09-03T04:16:40;8.00;;;4.03;;
1360;SDS011;674;45.552;-122.600;2022-09-03T04:19:09;6.50;;;3.87;;
1360;SDS011;674;45.552;-122.600;2022-09-03T04:21:37;7.37;;;3.80;;
1360;SDS011;674;45.552;-122.600;2022-09-03T04:24:06;5.93;;;3.50;;
1360;SDS011;674;45.552;-122.600;2022-09-03T04:26:35;5.20;;;3.90;;
1360;SDS011;674;45.552;-122.600;2022-09-03T04:29:04;4.53;;;3.43;;
1360;SDS011;674;45.552;-122.600;2022-09-03T04:31:35;6.70;;;3.23;;
1360;SDS011;674;45.552;-122.600;2022-09-03T04:34:05;5.73;;;3.33;;
1360;SDS011;674;45.552;-122.600;2022-09-03T04:36:33;4.17;;;3.20;;
1360;SDS011;674;45.552;-122.600;2022-09-03T04:39:03;5.93;;;2.90;;
1360;SDS011;674;45.552;-122.600;2022-09-03T04:41:32;6.80;;;3.80;;
1360;SDS011;674;45.552;-122.600;2022-09-03T04:44:00;5.83;;;3.30;;
1360;SDS011;674;45.552;-122.600;2022-09-03T04:46:29;6.07;;;3.50;;
1360;SDS011;674;45.552;-122.600;2022-09-03T04:49:00;5.90;;;3.30;;
1360;SDS011;674;45.552;-122.600;2022-09-03T04:51:29;6.80;;;2.90;;
1360;SDS011;674;45.552;-122.600;2022-09-03T04:53:59;7.10;;;3.50;;
1360;SDS011;674;45.552;-122.600;2022-09-03T04:56:32;3.50;;;2.77;;
1360;SDS011;674;45.552;-122.600;2022-09-03T04:59:02;4.23;;;3.03;;
1360;SDS011;674;45.552;-122.600;2022-09-03T05:01:33;4.90;;;2.70;;
1360;SDS011;674;45.552;-122.600;2022-09-03T05:04:03;4.97;;;2.90;;
1360;SDS011;674;45.552;-122.600;2022-09-03T05:06:33;9.60;;;2.57;;
1360;SDS011;674;45.552;-122.600;2022-09-03T05:09:03;3.80;;;3.00;;
1360;SDS011;674;45.552;-122.600;2022-09-03T05:11:31;3.90;;;2.83;;
1360;SDS011;674;45.552;-122.600;2022-09-03T05:14:00;7.97;;;2.70;;
1360;SDS011;674;45.552;-122.600;2022-09-03T05:16:28;6.27;;;2.60;;
1360;SDS011;674;45.552;-122.600;2022-09-03T05:18:57;5.30;;;3.00;;
1360;SDS011;674;45.552;-122.600;2022-09-03T05:21:27;4.20;;;2.30;;
1360;SDS011;674;45.552;-122.600;2022-09-03T05:23:58;4.40;;;2.50;;
1360;SDS011;674;45.552;-122.600;2022-09-03T05:26:29;2.87;;;2.30;;
1360;SDS011;674;45.552;-122.600;2022-09-03T05:28:59;4.07;;;2.93;;
1360;SDS011;674;45.552;-122.600;2022-09-03T05:31:29;3.80;;;2.93;;
1360;SDS011;674;45.552;-122.600;2022-09-03T05:33:59;4.30;;;2.67;;
1360;SDS011;674;45.552;-122.600;2022-09-03T05:36:30;2.80;;;2.10;;
1360;SDS011;674;45.552;-122.600;2022-09-03T05:39:05;4.50;;;2.30;;
1360;SDS011;674;45.552;-122.600;2022-09-03T05:41:33;3.27;;;2.43;;
1360;SDS011;674;45.552;-122.600;2022-09-03T05:44:02;4.07;;;2.37;;
1360;SDS011;674;45.552;-122.600;2022-09-03T05:46:32;2.30;;;1.57;;
1360;SDS011;674;45.552;-122.600;2022-09-03T05:49:05;2.70;;;1.60;;
1360;SDS011;674;45.552;-122.600;2022-09-03T05:51:35;4.43;;;2.40;;
1360;SDS011;674;45.552;-122.600;2022-09-03T05:54:05;3.17;;;2.23;;
1360;SDS011;674;45.552;-122.600;2022-09-03T05:56:35;3.00;;;1.97;;
1360;SDS011;674;45.552;-122.600;2022-09-03T05:59:08;4.47;;;2.90;;
1360;SDS011;674;45.552;-122.600;2022-09-03T06:01:38;3.50;;;2.20;;
1360;SDS011;674;45.552;-122.600;2022-09-03T06:04:16;5.03;;;2.07;;
1360;SDS011;674;45.552;-122.600;2022-09-03T06:06:45;2.13;;;1.63;;
1360;SDS011;674;45.552;-122.600;2022-09-03T06:09:15;3.40;;;1.83;;
1360;SDS011;674;45.552;-122.600;2022-09-03T06:11:46;3.03;;;2.30;;
1360;SDS011;674;45.552;-122.600;2022-09-03T06:14:18;3.00;;;2.10;;
1360;SDS011;674;45.552;-122.600;2022-09-03T06:16:48;3.17;;;2.23;;
1360;SDS011;674;45.552;-122.600;2022-09-03T06:19:19;4.33;;;2.47;;
1360;SDS011;674;45.552;-122.600;2022-09-03T06:21:47;3.07;;;2.20;;
1360;SDS011;674;45.552;-122.600;2022-09-03T06:24:19;3.63;;;2.50;;
1360;SDS011;674;45.552;-122.600;2022-09-03T06:26:54;6.80;;;2.60;;
1360;SDS011;674;45.552;-122.600;2022-09-03T06:29:23;4.20;;;2.40;;
1360;SDS011;674;45.552;-122.600;2022-09-03T06:31:52;3.10;;;2.10;;
1360;SDS011;674;45.552;-122.600;2022-09-03T06:34:22;5.93;;;2.27;;
1360;SDS011;674;45.552;-122.600;2022-09-03T06:36:53;3.23;;;2.50;;
1360;SDS011;674;45.552;-122.600;2022-09-03T06:39:22;2.70;;;1.77;;
1360;SDS011;674;45.552;-122.600;2022-09-03T06:41:51;3.23;;;2.20;;
1360;SDS011;674;45.552;-122.600;2022-09-03T06:44:21;3.50;;;1.87;;
1360;SDS011;674;45.552;-122.600;2022-09-03T06:46:49;2.67;;;1.97;;
1360;SDS011;674;45.552;-122.600;2022-09-03T06:49:19;2.43;;;1.80;;
1360;SDS011;674;45.552;-122.600;2022-09-03T06:51:48;4.87;;;2.00;;
1360;SDS011;674;45.552;-122.600;2022-09-03T06:54:16;2.50;;;2.10;;
1360;SDS011;674;45.552;-122.600;2022-09-03T06:56:45;2.40;;;1.83;;
1360;SDS011;674;45.552;-122.600;2022-09-03T06:59:13;2.63;;;2.17;;
1360;SDS011;674;45.552;-122.600;2022-09-03T07:01:42;4.20;;;2.30;;
1360;SDS011;674;45.552;-122.600;2022-09-03T07:04:13;2.50;;;2.03;;
1360;SDS011;674;45.552;-122.600;2022-09-03T07:06:46;4.07;;;1.87;;
1360;SDS011;674;45.552;-122.600;2022-09-03T07:09:15;5.87;;;2.23;;
1360;SDS011;674;45.552;-122.600;2022-09-03T07:11:45;2.67;;;1.70;;
1360;SDS011;674;45.552;-122.600;2022-09-03T07:14:15;5.50;;;1.80;;
1360;SDS011;674;45.552;-122.600;2022-09-03T07:16:45;2.83;;;1.93;;
1360;SDS011;674;45.552;-122.600;2022-09-03T07:19:15;3.63;;;1.90;;
1360;SDS011;674;45.552;-122.600;2022-09-03T07:21:44;4.17;;;2.00;;
1360;SDS011;674;45.552;-122.600;2022-09-03T07:24:16;3.50;;;2.07;;
1360;SDS011;674;45.552;-122.600;2022-09-03T07:26:46;3.57;;;1.80;;
1360;SDS011;674;45.552;-122.600;2022-09-03T07:29:15;4.00;;;2.13;;
1360;SDS011;674;45.552;-122.600;2022-09-03T07:31:47;4.97;;;2.80;;
1360;SDS011;674;45.552;-122.600;2022-09-03T07:34:20;3.03;;;2.27;;
1360;SDS011;674;45.552;-122.600;2022-09-03T07:36:52;2.97;;;2.10;;
1360;SDS011;674;45.552;-122.600;2022-09-03T07:39:21;4.57;;;2.50;;
1360;SDS011;674;45.552;-122.600;2022-09-03T07:41:49;2.77;;;2.30;;
1360;SDS011;674;45.552;-122.600;2022-09-03T07:44:18;3.47;;;2.43;;
1360;SDS011;674;45.552;-122.600;2022-09-03T07:46:47;3.27;;;2.20;;
1360;SDS011;674;45.552;-122.600;2022-09-03T07:49:17;2.93;;;2.27;;
1360;SDS011;674;45.552;-122.600;2022-09-03T07:51:48;3.57;;;2.20;;
1360;SDS011;674;45.552;-122.600;2022-09-03T07:54:18;2.90;;;2.20;;
1360;SDS011;674;45.552;-122.600;2022-09-03T07:56:48;5.13;;;2.20;;
1360;SDS011;674;45.552;-122.600;2022-09-03T07:59:16;2.53;;;2.03;;
1360;SDS011;674;45.552;-122.600;2022-09-03T08:01:46;3.50;;;2.50;;
1360;SDS011;674;45.552;-122.600;2022-09-03T08:04:15;3.03;;;2.17;;
1360;SDS011;674;45.552;-122.600;2022-09-03T08:06:43;3.20;;;2.57;;
1360;SDS011;674;45.552;-122.600;2022-09-03T08:09:11;4.27;;;2.10;;
1360;SDS011;674;45.552;-122.600;2022-09-03T08:11:41;2.67;;;1.90;;
1360;SDS011;674;45.552;-122.600;2022-09-03T08:14:11;4.57;;;2.10;;
1360;SDS011;674;45.552;-122.600;2022-09-03T08:16:42;3.50;;;2.20;;
1360;SDS011;674;45.552;-122.600;2022-09-03T08:19:17;3.47;;;2.63;;
1360;SDS011;674;45.552;-122.600;2022-09-03T08:21:46;5.30;;;2.20;;
1360;SDS011;674;45.552;-122.600;2022-09-03T08:24:15;3.10;;;2.60;;
1360;SDS011;674;45.552;-122.600;2022-09-03T08:26:47;4.13;;;2.50;;
1360;SDS011;674;45.552;-122.600;2022-09-03T08:29:18;4.87;;;3.50;;
1360;SDS011;674;45.552;-122.600;2022-09-03T08:31:48;4.73;;;3.60;;
1360;SDS011;674;45.552;-122.600;2022-09-03T08:34:17;5.90;;;3.80;;
1360;SDS011;674;45.552;-122.600;2022-09-03T08:36:46;4.97;;;3.10;;
1360;SDS011;674;45.552;-122.600;2022-09-03T08:39:15;3.13;;;2.57;;
1360;SDS011;674;45.552;-122.600;2022-09-03T08:49:56;4.73;;;2.70;;
1360;SDS011;674;45.552;-122.600;2022-09-03T08:57:47;2.67;;;2.03;;
1360;SDS011;674;45.552;-122.600;2022-09-03T09:03:27;3.40;;;2.03;;
1360;SDS011;674;45.552;-122.600;2022-09-03T09:08:56;2.87;;;2.30;;
1360;SDS011;674;45.552;-122.600;2022-09-03T09:17:16;5.20;;;2.33;;
1360;SDS011;674;45.552;-122.600;2022-09-03T09:20:17;3.47;;;2.10;;
1360;SDS011;674;45.552;-122.600;2022-09-03T09:22:56;2.60;;;1.80;;
1360;SDS011;674;45.552;-122.600;2022-09-03T09:25:29;2.50;;;1.90;;
1360;SDS011;674;45.552;-122.600;2022-09-03T09:28:03;3.13;;;2.00;;
1360;SDS011;674;45.552;-122.600;2022-09-03T09:30:40;3.67;;;2.00;;
1360;SDS011;674;45.552;-122.600;2022-09-03T09:33:10;2.70;;;1.77;;
1360;SDS011;674;45.552;-122.600;2022-09-03T09:35:38;2.90;;;2.20;;
1360;SDS011;674;45.552;-122.600;2022-09-03T09:38:09;3.47;;;2.27;;
1360;SDS011;674;45.552;-122.600;2022-09-03T09:40:42;3.57;;;2.10;;
1360;SDS011;674;45.552;-122.600;2022-09-03T09:43:15;2.90;;;1.93;;
1360;SDS011;674;45.552;-122.600;2022-09-03T09:45:48;2.90;;;2.27;;
1360;SDS011;674;45.552;-122.600;2022-09-03T09:51:10;2.20;;;1.93;;
1360;SDS011;674;45.552;-122.600;2022-09-03T09:53:40;3.60;;;2.57;;
1360;SDS011;674;45.552;-122.600;2022-09-03T09:56:08;3.00;;;2.20;;
1360;SDS011;674;45.552;-122.600;2022-09-03T09:59:07;2.90;;;2.20;;
1360;SDS011;674;45.552;-122.600;2022-09-03T10:01:41;2.70;;;2.30;;
1360;SDS011;674;45.552;-122.600;2022-09-03T10:18:30;2.70;;;2.07;;
1360;SDS011;674;45.552;-122.600;2022-09-03T10:26:42;2.60;;;2.20;;
1360;SDS011;674;45.552;-122.600;2022-09-03T10:29:15;2.70;;;1.80;;
1360;SDS011;674;45.552;-122.600;2022-09-03T10:34:42;2.40;;;1.60;;
1360;SDS011;674;45.552;-122.600;2022-09-03T10:40:15;6.77;;;4.70;;
1360;SDS011;674;45.552;-122.600;2022-09-03T10:50:58;5.13;;;3.50;;
1360;SDS011;674;45.552;-122.600;2022-09-03T11:01:58;2.67;;;1.80;;
1360;SDS011;674;45.552;-122.600;2022-09-03T11:04:45;4.10;;;2.00;;
1360;SDS011;674;45.552;-122.600;2022-09-03T11:07:35;3.20;;;2.17;;
1360;SDS011;674;45.552;-122.600;2022-09-03T11:10:14;1.80;;;1.17;;
1360;SDS011;674;45.552;-122.600;2022-09-03T11:13:01;3.00;;;1.30;;
1360;SDS011;674;45.552;-122.600;2022-09-03T11:15:39;2.30;;;1.57;;
1360;SDS011;674;45.552;-122.600;2022-09-03T11:18:48;2.57;;;1.50;;
1360;SDS011;674;45.552;-122.600;2022-09-03T11:21:11;2.43;;;1.50;;
1360;SDS011;674;45.552;-122.600;2022-09-03T11:23:45;1.90;;;1.30;;
1360;SDS011;674;45.552;-122.600;2022-09-03T11:26:21;2.50;;;1.57;;
1360;SDS011;674;45.552;-122.600;2022-09-03T11:31:44;2.37;;;1.80;;
1360;SDS011;674;45.552;-122.600;2022-09-03T11:39:54;2.70;;;1.67;;
1360;SDS011;674;45.552;-122.600;2022-09-03T11:45:38;2.90;;;1.73;;
1360;SDS011;674;45.552;-122.600;2022-09-03T11:48:00;2.97;;;1.43;;
1360;SDS011;674;45.552;-122.600;2022-09-03T11:50:50;2.47;;;1.80;;
1360;SDS011;674;45.552;-122.600;2022-09-03T11:53:25;2.20;;;1.67;;
1360;SDS011;674;45.552;-122.600;2022-09-03T11:56:11;3.60;;;1.50;;
1360;SDS011;674;45.552;-122.600;2022-09-03T11:58:45;3.10;;;1.63;;
1360;SDS011;674;45.552;-122.600;2022-09-03T12:01:25;2.70;;;1.30;;
1360;SDS011;674;45.552;-122.600;2022-09-03T12:17:53;2.30;;;1.30;;
1360;SDS011;674;45.552;-122.600;2022-09-03T12:20:43;2.43;;;1.00;;
1360;SDS011;674;45.552;-122.600;2022-09-03T12:23:38;1.77;;;1.10;;
1360;SDS011;674;45.552;-122.600;2022-09-03T12:26:24;2.30;;;1.03;;
1360;SDS011;674;45.552;-122.600;2022-09-03T12:28:54;1.83;;;1.13;;
1360;SDS011;674;45.552;-122.600;2022-09-03T12:33:58;2.00;;;1.37;;
1360;SDS011;674;45.552;-122.600;2022-09-03T12:36:38;1.90;;;1.40;;
1360;SDS011;674;45.552;-122.600;2022-09-03T12:39:15;3.13;;;2.10;;
1360;SDS011;674;45.552;-122.600;2022-09-03T12:42:13;1.90;;;1.10;;
1360;SDS011;674;45.552;-122.600;2022-09-03T12:44:49;2.87;;;1.57;;
1360;SDS011;674;45.552;-122.600;2022-09-03T12:47:18;2.90;;;1.57;;
1360;SDS011;674;45.552;-122.600;2022-09-03T12:50:14;1.83;;;1.13;;
1360;SDS011;674;45.552;-122.600;2022-09-03T12:55:25;2.00;;;1.30;;
1360;SDS011;674;45.552;-122.600;2022-09-03T13:00:31;2.60;;;1.20;;
1360;SDS011;674;45.552;-122.600;2022-09-03T13:03:04;1.67;;;1.00;;
1360;SDS011;674;45.552;-122.600;2022-09-03T13:05:43;1.57;;;1.00;;
1360;SDS011;674;45.552;-122.600;2022-09-03T13:08:20;2.53;;;1.13;;
1360;SDS011;674;45.552;-122.600;2022-09-03T13:11:01;3.30;;;1.40;;
1360;SDS011;674;45.552;-122.600;2022-09-03T13:13:32;2.53;;;1.90;;
1360;SDS011;674;45.552;-122.600;2022-09-03T13:18:41;2.00;;;1.30;;
1360;SDS011;674;45.552;-122.600;2022-09-03T13:21:32;2.73;;;1.33;;
1360;SDS011;674;45.552;-122.600;2022-09-03T13:30:22;8.30;;;1.83;;
1360;SDS011;674;45.552;-122.600;2022-09-03T13:44:01;1.90;;;1.20;;
1360;SDS011;674;45.552;-122.600;2022-09-03T13:46:51;3.40;;;1.30;;
1360;SDS011;674;45.552;-122.600;2022-09-03T13:49:34;5.43;;;1.57;;
1360;SDS011;674;45.552;-122.600;2022-09-03T13:52:39;2.87;;;1.40;;
1360;SDS011;674;45.552;-122.600;2022-09-03T14:03:43;2.30;;;1.30;;
1360;SDS011;674;45.552;-122.600;2022-09-03T14:11:57;3.43;;;1.40;;
1360;SDS011;674;45.552;-122.600;2022-09-03T14:20:05;3.50;;;2.20;;
1360;SDS011;674;45.552;-122.600;2022-09-03T14:25:30;3.90;;;1.97;;
1360;SDS011;674;45.552;-122.600;2022-09-03T14:28:12;2.90;;;2.07;;
1360;SDS011;674;45.552;-122.600;2022-09-03T14:30:48;4.83;;;2.00;;
1360;SDS011;674;45.552;-122.600;2022-09-03T14:33:32;4.33;;;2.37;;
1360;SDS011;674;45.552;-122.600;2022-09-03T14:44:40;3.87;;;2.63;;
1360;SDS011;674;45.552;-122.600;2022-09-03T14:47:35;4.47;;;2.57;;
1360;SDS011;674;45.552;-122.600;2022-09-03T14:56:27;3.77;;;2.87;;
1360;SDS011;674;45.552;-122.600;2022-09-03T15:04:54;4.50;;;2.30;;
1360;SDS011;674;45.552;-122.600;2022-09-03T15:07:33;2.57;;;1.83;;
1360;SDS011;674;45.552;-122.600;2022-09-03T15:12:54;2.30;;;1.70;;
1360;SDS011;674;45.552;-122.600;2022-09-03T15:20:48;2.63;;;1.90;;
1360;SDS011;674;45.552;-122.600;2022-09-03T15:26:28;2.50;;;1.83;;
1360;SDS011;674;45.552;-122.600;2022-09-03T15:43:08;2.50;;;1.90;;
1360;SDS011;674;45.552;-122.600;2022-09-03T15:45:50;4.07;;;2.27;;
1360;SDS011;674;45.552;-122.600;2022-09-03T16:02:16;2.63;;;2.03;;
1360;SDS011;674;45.552;-122.600;2022-09-03T16:05:07;2.70;;;2.10;;
1360;SDS011;674;45.552;-122.600;2022-09-03T16:08:08;5.73;;;3.07;;
1360;SDS011;674;45.552;-122.600;2022-09-03T16:11:04;2.33;;;1.87;;
1360;SDS011;674;45.552;-122.600;2022-09-03T16:16:27;3.40;;;2.23;;
1360;SDS011;674;45.552;-122.600;2022-09-03T16:19:16;4.23;;;2.43;;
1360;SDS011;674;45.552;-122.600;2022-09-03T16:21:59;3.10;;;2.00;;
1360;SDS011;674;45.552;-122.600;2022-09-03T16:32:43;4.43;;;1.90;;
1360;SDS011;674;45.552;-122.600;2022-09-03T16:47:40;5.10;;;2.27;;
1360;SDS011;674;45.552;-122.600;2022-09-03T16:53:23;4.60;;;2.10;;
1360;SDS011;674;45.552;-122.600;2022-09-03T17:02:24;3.90;;;2.53;;
1360;SDS011;674;45.552;-122.600;2022-09-03T17:10:50;3.17;;;2.20;;
1360;SDS011;674;45.552;-122.600;2022-09-03T17:13:44;3.83;;;2.10;;
1360;SDS011;674;45.552;-122.600;2022-09-03T17:16:29;3.97;;;2.13;;
1360;SDS011;674;45.552;-122.600;2022-09-03T17:24:54;3.00;;;1.70;;
1360;SDS011;674;45.552;-122.600;2022-09-03T17:27:41;2.20;;;1.83;;
1360;SDS011;674;45.552;-122.600;2022-09-03T17:30:23;3.00;;;2.00;;
1360;SDS011;674;45.552;-122.600;2022-09-03T17:33:20;3.03;;;1.70;;
1360;SDS011;674;45.552;-122.600;2022-09-03T17:36:09;2.17;;;1.37;;
1360;SDS011;674;45.552;-122.600;2022-09-03T17:44:26;3.03;;;1.53;;
1360;SDS011;674;45.552;-122.600;2022-09-03T17:49:43;2.70;;;1.30;;
1360;SDS011;674;45.552;-122.600;2022-09-03T17:52:24;1.97;;;1.30;;
1360;SDS011;674;45.552;-122.600;2022-09-03T17:55:09;3.53;;;1.63;;
1360;SDS011;674;45.552;-122.600;2022-09-03T18:09:04;5.20;;;2.00;;
1360;SDS011;674;45.552;-122.600;2022-09-03T18:11:46;2.40;;;1.40;;
1360;SDS011;674;45.552;-122.600;2022-09-03T18:14:36;3.20;;;1.40;;
1360;SDS011;674;45.552;-122.600;2022-09-03T18:20:15;3.00;;;1.33;;
1360;SDS011;674;45.552;-122.600;2022-09-03T18:25:56;2.20;;;1.20;;
1360;SDS011;674;45.552;-122.600;2022-09-03T18:29:03;3.90;;;1.90;;
1360;SDS011;674;45.552;-122.600;2022-09-03T18:31:58;2.77;;;1.97;;
1360;SDS011;674;45.552;-122.600;2022-09-03T18:34:46;2.83;;;1.90;;
1360;SDS011;674;45.552;-122.600;2022-09-03T18:37:33;3.17;;;1.53;;
1360;SDS011;674;45.552;-122.600;2022-09-03T18:40:23;2.33;;;1.50;;
1360;SDS011;674;45.552;-122.600;2022-09-03T18:50:00;3.43;;;1.80;;
1360;SDS011;674;45.552;-122.600;2022-09-03T18:52:55;8.73;;;2.23;;
1360;SDS011;674;45.552;-122.600;2022-09-03T19:15:28;2.43;;;1.50;;
1360;SDS011;674;45.552;-122.600;2022-09-03T19:21:27;2.17;;;1.60;;
1360;SDS011;674;45.552;-122.600;2022-09-03T19:24:28;2.07;;;1.53;;
1360;SDS011;674;45.552;-122.600;2022-09-03T19:37:18;2.50;;;1.80;;
1360;SDS011;674;45.552;-122.600;2022-09-03T19:40:49;2.77;;;1.47;;
1360;SDS011;674;45.552;-122.600;2022-09-03T19:46:42;2.50;;;1.90;;
1360;SDS011;674;45.552;-122.600;2022-09-03T19:52:53;3.90;;;1.90;;
1360;SDS011;674;45.552;-122.600;2022-09-03T19:55:56;12.83;;;2.57;;
1360;SDS011;674;45.552;-122.600;2022-09-03T19:58:51;3.13;;;1.93;;
1360;SDS011;674;45.552;-122.600;2022-09-03T20:01:51;3.33;;;2.27;;
1360;SDS011;674;45.552;-122.600;2022-09-03T20:04:43;3.50;;;2.17;;
1360;SDS011;674;45.552;-122.600;2022-09-03T20:07:44;3.37;;;2.10;;
1360;SDS011;674;45.552;-122.600;2022-09-03T20:10:37;2.47;;;2.17;;
1360;SDS011;674;45.552;-122.600;2022-09-03T20:13:08;2.73;;;1.50;;
1360;SDS011;674;45.552;-122.600;2022-09-03T20:20:59;3.57;;;2.30;;
1360;SDS011;674;45.552;-122.600;2022-09-03T20:23:57;4.20;;;2.10;;
1360;SDS011;674;45.552;-122.600;2022-09-03T20:29:29;5.23;;;2.30;;
1360;SDS011;674;45.552;-122.600;2022-09-03T20:37:38;5.57;;;2.17;;
1360;SDS011;674;45.552;-122.600;2022-09-03T20:43:07;2.60;;;1.80;;
1360;SDS011;674;45.552;-122.600;2022-09-03T20:52:09;2.70;;;1.93;;
1360;SDS011;674;45.552;-122.600;2022-09-03T21:03:48;3.20;;;2.00;;
1360;SDS011;674;45.552;-122.600;2022-09-03T21:09:32;2.57;;;2.00;;
1360;SDS011;674;45.552;-122.600;2022-09-03T21:12:13;3.20;;;1.73;;
1360;SDS011;674;45.552;-122.600;2022-09-03T21:21:05;2.50;;;1.80;;
1360;SDS011;674;45.552;-122.600;2022-09-03T21:23:45;2.77;;;1.80;;
1360;SDS011;674;45.552;-122.600;2022-09-03T21:34:29;3.63;;;2.53;;
1360;SDS011;674;45.552;-122.600;2022-09-03T21:37:02;2.97;;;2.10;;
1360;SDS011;674;45.552;-122.600;2022-09-03T21:39:35;4.20;;;2.03;;
1360;SDS011;674;45.552;-122.600;2022-09-03T21:47:42;2.77;;;1.87;;
1360;SDS011;674;45.552;-122.600;2022-09-03T21:50:17;2.30;;;1.60;;
1360;SDS011;674;45.552;-122.600;2022-09-03T21:52:51;28.60;;;26.07;;
1360;SDS011;674;45.552;-122.600;2022-09-03T21:58:46;4.00;;;1.80;;
1360;SDS011;674;45.552;-122.600;2022-09-03T22:02:25;3.10;;;1.90;;
1360;SDS011;674;45.552;-122.600;2022-09-03T22:04:43;3.93;;;2.50;;
1360;SDS011;674;45.552;-122.600;2022-09-03T22:10:33;3.80;;;2.30;;
1360;SDS011;674;45.552;-122.600;2022-09-03T22:16:21;4.27;;;2.40;;
1360;SDS011;674;45.552;-122.600;2022-09-03T22:19:06;2.73;;;2.20;;
1360;SDS011;674;45.552;-122.600;2022-09-03T22:21:37;3.03;;;2.03;;
1360;SDS011;674;45.552;-122.600;2022-09-03T22:24:37;2.93;;;2.23;;
1360;SDS011;674;45.552;-122.600;2022-09-03T22:30:03;2.90;;;2.23;;
1360;SDS011;674;45.552;-122.600;2022-09-03T22:52:24;2.90;;;2.20;;
1360;SDS011;674;45.552;-122.600;2022-09-03T22:57:39;5.27;;;3.00;;
1360;SDS011;674;45.552;-122.600;2022-09-03T23:00:18;4.73;;;4.10;;
1360;SDS011;674;45.552;-122.600;2022-09-03T23:02:50;5.63;;;3.00;;
1360;SDS011;674;45.552;-122.600;2022-09-03T23:05:43;6.93;;;2.50;;
1360;SDS011;674;45.552;-122.600;2022-09-03T23:08:28;3.70;;;2.53;;
1360;SDS011;674;45.552;-122.600;2022-09-03T23:14:02;3.00;;;2.37;;
1360;SDS011;674;45.552;-122.600;2022-09-03T23:16:44;2.63;;;2.30;;
1360;SDS011;674;45.552;-122.600;2022-09-03T23:19:37;6.33;;;2.30;;
1360;SDS011;674;45.552;-122.600;2022-09-03T23:22:20;2.30;;;1.90;;
1360;SDS011;674;45.552;-122.600;2022-09-03T23:25:16;3.43;;;2.30;;
1360;SDS011;674;45.552;-122.600;2022-09-03T23:30:50;3.20;;;2.40;;
1360;SDS011;674;45.552;-122.600;2022-09-03T23:33:19;2.70;;;2.20;;
1360;SDS011;674;45.552;-122.600;2022-09-03T23:35:55;6.40;;;2.47;;
1360;SDS011;674;45.552;-122.600;2022-09-03T23:38:49;4.53;;;2.80;;